Main page
METAR-TAF:

METAR-TAF

Airports :

Chandigarh International Airport

Chandigarh, India

latitude: 30-40-29N, longitude: 76-47-26E, elevation: 314 m

METAR: missing

Time: 04:42 (23:12 UTC)

Forecast

The report was made 6 hours and 12 minutes ago, at 17:00 UTC
Forecast valid from 22 at 18 UTC to 24 at 00 UTC
Wind 2 kt from variable directions
Visibility: 6000 m
Few clouds at a height of 25000 ft
Becoming
from 23 at 03 UTC to 23 at 05 UTC
Wind 10 kt from the West
Visibility: 6000 m
Scattered clouds at a height of 25000 ft
Temporary
from 23 at 08 UTC to 23 at 12 UTC
Wind 10 kt from the West/Northwest with gusts up to 20 kt
Visibility: 6000 m
Scattered clouds at a height of 3000 ft
Broken clouds at a height of 25000 ft
Becoming
from 23 at 14 UTC to 23 at 16 UTC
Wind 2 kt from variable directions
Visibility: 6000 m

TAF: VICG 221700Z 2218/2400 VRB02KT 6000 FEW250 BECMG 2303/2305 26010KT 6000 SCT250 TEMPO 2308/2312 30010G20KT 6000 SCT030 FEW030TCUCB BKN250 BECMG 2314/2316 VRB02KT 6000 NSC

Weather observations and forecasts of more than 4000 airports (METAR and TAF reports).

The available stations are represented by yellow and red dots on the map.

Hover mouse over dot to see the name of the station.

Then click to see weather observations and forecasts.

To change the map : click on the green buttons with a black cross to zoom in, on the green button with a dash to zoom out, or on the green arrows for adjacent maps.


METAR-TAF: